Pagina principale
METAR-TAF:

METAR-TAF

Aeroporti :

Aeroporto Internazionale Faa'a

Tahiti, Polinesia francese

latitudine: 17-33S, longitudine: 149-37W, altezza: 2 m

Osservazione

Il bollettino è stato emesso 30 minuti fa, alle 16:30 UTC
Vento 3 kt da direzioni variabili
Temperature 23°C
Umidità 83%
Pressione 1016 hPa
Visibilità 10 km o più
Poco nuvoloso ad un'altezza di 2300 ft

METAR: NTAA 201630Z VRB03KT 9999 FEW023 23/20 Q1016 NOSIG

Ora: 07:00 (17:00 UTC)

Previsione

Il bollettino è stato emesso 6 ore e 0 minuti fa, alle 11:00 UTC
Previsione valida dal 20 alle 12 UTC al 21 alle 18 UTC
Vento 3 kt da direzioni variabili
Visibilità 10 km o più
Poco nuvoloso ad un'altezza di 2300 ft
Nubi sparse ad un'altezza di 5000 ft

TAF: NTAA 201100Z 2012/2118 VRB03KT 9999 FEW023 SCT050

Osservazioni e previsioni meteorologiche di più di 4000 aeroporti (messaggi METAR e TAF).

Le stazioni disponibili sono rappresentate dai dischi gialli e rossi sulla carta.

Puntare il mouse per vedere il nome della stazione.

Clicca sopra per visualizzare le osservazioni e previsioni meteorologiche.

Per cambiare la mappa : fare clic sui pulsanti verdi con una croce nera per ingrandire, il pulsante verde con un trattino per diminuire, o sulla freccia verde per le mappe adiacenti.


METAR-TAF: